sensor_id;sensor_type;location;lat;lon;timestamp;P1;durP1;ratioP1;P2;durP2;ratioP2
76903;SDS011;65865;51.698;-0.292;2023-03-13T00:02:14;0.90;;;0.20;;
76903;SDS011;65865;51.698;-0.292;2023-03-13T00:04:40;1.00;;;0.43;;
76903;SDS011;65865;51.698;-0.292;2023-03-13T00:07:06;0.32;;;0.10;;
76903;SDS011;65865;51.698;-0.292;2023-03-13T00:09:34;0.77;;;0.20;;
76903;SDS011;65865;51.698;-0.292;2023-03-13T00:12:00;1.95;;;0.30;;
76903;SDS011;65865;51.698;-0.292;2023-03-13T00:14:26;0.75;;;0.20;;
76903;SDS011;65865;51.698;-0.292;2023-03-13T00:16:52;1.05;;;0.32;;
76903;SDS011;65865;51.698;-0.292;2023-03-13T00:19:18;0.75;;;0.20;;
76903;SDS011;65865;51.698;-0.292;2023-03-13T00:21:43;0.50;;;0.17;;
76903;SDS011;65865;51.698;-0.292;2023-03-13T00:24:10;1.50;;;0.20;;
76903;SDS011;65865;51.698;-0.292;2023-03-13T00:26:36;1.17;;;0.43;;
76903;SDS011;65865;51.698;-0.292;2023-03-13T00:29:02;0.40;;;0.20;;
76903;SDS011;65865;51.698;-0.292;2023-03-13T00:31:29;1.25;;;0.20;;
76903;SDS011;65865;51.698;-0.292;2023-03-13T00:34:02;0.52;;;0.32;;
76903;SDS011;65865;51.698;-0.292;2023-03-13T00:36:32;1.13;;;0.22;;
76903;SDS011;65865;51.698;-0.292;2023-03-13T00:39:04;1.83;;;0.50;;
76903;SDS011;65865;51.698;-0.292;2023-03-13T00:41:31;0.25;;;0.13;;
76903;SDS011;65865;51.698;-0.292;2023-03-13T00:43:58;0.70;;;0.20;;
76903;SDS011;65865;51.698;-0.292;2023-03-13T00:46:25;0.90;;;0.22;;
76903;SDS011;65865;51.698;-0.292;2023-03-13T00:48:51;2.88;;;0.38;;
76903;SDS011;65865;51.698;-0.292;2023-03-13T00:51:18;1.67;;;0.20;;
76903;SDS011;65865;51.698;-0.292;2023-03-13T00:53:44;1.90;;;0.30;;
76903;SDS011;65865;51.698;-0.292;2023-03-13T00:56:14;2.13;;;0.50;;
76903;SDS011;65865;51.698;-0.292;2023-03-13T00:58:41;2.05;;;0.30;;
76903;SDS011;65865;51.698;-0.292;2023-03-13T01:01:08;1.75;;;0.28;;
76903;SDS011;65865;51.698;-0.292;2023-03-13T01:03:38;1.90;;;0.30;;
76903;SDS011;65865;51.698;-0.292;2023-03-13T01:06:05;1.00;;;0.25;;
76903;SDS011;65865;51.698;-0.292;2023-03-13T01:08:31;1.77;;;0.30;;
76903;SDS011;65865;51.698;-0.292;2023-03-13T01:11:01;2.97;;;0.30;;
76903;SDS011;65865;51.698;-0.292;2023-03-13T01:13:28;1.90;;;0.30;;
76903;SDS011;65865;51.698;-0.292;2023-03-13T01:15:54;1.33;;;0.28;;
76903;SDS011;65865;51.698;-0.292;2023-03-13T01:18:20;2.90;;;0.40;;
76903;SDS011;65865;51.698;-0.292;2023-03-13T01:20:46;2.42;;;0.60;;
76903;SDS011;65865;51.698;-0.292;2023-03-13T01:23:12;3.25;;;0.50;;
76903;SDS011;65865;51.698;-0.292;2023-03-13T01:25:39;2.25;;;0.38;;
76903;SDS011;65865;51.698;-0.292;2023-03-13T01:28:05;2.25;;;0.50;;
76903;SDS011;65865;51.698;-0.292;2023-03-13T01:30:31;3.22;;;0.70;;
76903;SDS011;65865;51.698;-0.292;2023-03-13T01:32:57;2.90;;;0.57;;
76903;SDS011;65865;51.698;-0.292;2023-03-13T01:35:23;2.70;;;0.52;;
76903;SDS011;65865;51.698;-0.292;2023-03-13T01:40:18;2.65;;;0.75;;
76903;SDS011;65865;51.698;-0.292;2023-03-13T01:43:03;2.55;;;0.55;;
76903;SDS011;65865;51.698;-0.292;2023-03-13T01:48:39;4.38;;;0.82;;
76903;SDS011;65865;51.698;-0.292;2023-03-13T01:51:23;2.40;;;0.30;;
76903;SDS011;65865;51.698;-0.292;2023-03-13T01:53:50;2.15;;;0.52;;
76903;SDS011;65865;51.698;-0.292;2023-03-13T01:56:19;2.65;;;0.50;;
76903;SDS011;65865;51.698;-0.292;2023-03-13T01:58:53;1.00;;;0.32;;
76903;SDS011;65865;51.698;-0.292;2023-03-13T02:01:22;2.05;;;0.47;;
76903;SDS011;65865;51.698;-0.292;2023-03-13T02:03:49;2.47;;;0.45;;
76903;SDS011;65865;51.698;-0.292;2023-03-13T02:06:16;3.15;;;0.43;;
76903;SDS011;65865;51.698;-0.292;2023-03-13T02:08:50;3.08;;;0.50;;
76903;SDS011;65865;51.698;-0.292;2023-03-13T02:13:46;3.22;;;0.50;;
76903;SDS011;65865;51.698;-0.292;2023-03-13T02:16:13;2.72;;;0.52;;
76903;SDS011;65865;51.698;-0.292;2023-03-13T02:18:39;4.25;;;0.80;;
76903;SDS011;65865;51.698;-0.292;2023-03-13T02:21:21;2.15;;;0.70;;
76903;SDS011;65865;51.698;-0.292;2023-03-13T02:23:50;2.47;;;0.60;;
76903;SDS011;65865;51.698;-0.292;2023-03-13T02:26:17;1.73;;;0.52;;
76903;SDS011;65865;51.698;-0.292;2023-03-13T02:28:43;2.72;;;0.73;;
76903;SDS011;65865;51.698;-0.292;2023-03-13T02:31:09;3.60;;;0.73;;
76903;SDS011;65865;51.698;-0.292;2023-03-13T02:33:37;2.33;;;0.40;;
76903;SDS011;65865;51.698;-0.292;2023-03-13T02:36:04;4.47;;;0.63;;
76903;SDS011;65865;51.698;-0.292;2023-03-13T02:38:32;2.60;;;0.55;;
76903;SDS011;65865;51.698;-0.292;2023-03-13T02:40:59;2.72;;;0.47;;
76903;SDS011;65865;51.698;-0.292;2023-03-13T02:43:29;2.83;;;0.73;;
76903;SDS011;65865;51.698;-0.292;2023-03-13T02:48:31;3.50;;;0.77;;
76903;SDS011;65865;51.698;-0.292;2023-03-13T02:50:58;1.90;;;0.43;;
76903;SDS011;65865;51.698;-0.292;2023-03-13T02:53:24;1.95;;;0.30;;
76903;SDS011;65865;51.698;-0.292;2023-03-13T02:55:50;1.98;;;0.52;;
76903;SDS011;65865;51.698;-0.292;2023-03-13T02:58:17;2.50;;;0.52;;
76903;SDS011;65865;51.698;-0.292;2023-03-13T03:00:43;2.25;;;0.38;;
76903;SDS011;65865;51.698;-0.292;2023-03-13T03:03:09;1.95;;;0.50;;
76903;SDS011;65865;51.698;-0.292;2023-03-13T03:05:35;3.58;;;0.60;;
76903;SDS011;65865;51.698;-0.292;2023-03-13T03:08:01;2.17;;;0.50;;
76903;SDS011;65865;51.698;-0.292;2023-03-13T03:10:28;2.88;;;0.55;;
76903;SDS011;65865;51.698;-0.292;2023-03-13T03:12:54;1.73;;;0.30;;
76903;SDS011;65865;51.698;-0.292;2023-03-13T03:15:20;1.98;;;0.45;;
76903;SDS011;65865;51.698;-0.292;2023-03-13T03:17:47;2.40;;;0.38;;
76903;SDS011;65865;51.698;-0.292;2023-03-13T03:20:13;2.95;;;0.52;;
76903;SDS011;65865;51.698;-0.292;2023-03-13T03:22:39;2.60;;;0.45;;
76903;SDS011;65865;51.698;-0.292;2023-03-13T03:25:06;2.70;;;0.50;;
76903;SDS011;65865;51.698;-0.292;2023-03-13T03:27:33;1.90;;;0.30;;
76903;SDS011;65865;51.698;-0.292;2023-03-13T03:30:00;1.05;;;0.30;;
76903;SDS011;65865;51.698;-0.292;2023-03-13T03:32:26;1.77;;;0.60;;
76903;SDS011;65865;51.698;-0.292;2023-03-13T03:34:52;2.08;;;0.43;;
76903;SDS011;65865;51.698;-0.292;2023-03-13T03:37:18;1.45;;;0.30;;
76903;SDS011;65865;51.698;-0.292;2023-03-13T03:39:44;2.17;;;0.30;;
76903;SDS011;65865;51.698;-0.292;2023-03-13T03:42:10;1.70;;;0.43;;
76903;SDS011;65865;51.698;-0.292;2023-03-13T03:44:36;2.05;;;0.32;;
76903;SDS011;65865;51.698;-0.292;2023-03-13T03:47:02;2.42;;;0.40;;
76903;SDS011;65865;51.698;-0.292;2023-03-13T03:49:28;1.27;;;0.30;;
76903;SDS011;65865;51.698;-0.292;2023-03-13T03:51:54;1.05;;;0.20;;
76903;SDS011;65865;51.698;-0.292;2023-03-13T03:54:20;1.30;;;0.30;;
76903;SDS011;65865;51.698;-0.292;2023-03-13T03:56:46;1.67;;;0.40;;
76903;SDS011;65865;51.698;-0.292;2023-03-13T03:59:12;1.20;;;0.40;;
76903;SDS011;65865;51.698;-0.292;2023-03-13T04:01:38;1.52;;;0.30;;
76903;SDS011;65865;51.698;-0.292;2023-03-13T04:04:04;2.17;;;0.28;;
76903;SDS011;65865;51.698;-0.292;2023-03-13T04:06:30;0.80;;;0.32;;
76903;SDS011;65865;51.698;-0.292;2023-03-13T04:08:56;2.17;;;0.30;;
76903;SDS011;65865;51.698;-0.292;2023-03-13T04:11:22;1.10;;;0.20;;
76903;SDS011;65865;51.698;-0.292;2023-03-13T04:13:48;1.55;;;0.40;;
76903;SDS011;65865;51.698;-0.292;2023-03-13T04:16:15;1.13;;;0.47;;
76903;SDS011;65865;51.698;-0.292;2023-03-13T04:18:41;1.02;;;0.32;;
76903;SDS011;65865;51.698;-0.292;2023-03-13T04:21:07;1.60;;;0.43;;
76903;SDS011;65865;51.698;-0.292;2023-03-13T04:23:33;1.08;;;0.40;;
76903;SDS011;65865;51.698;-0.292;2023-03-13T04:25:59;0.65;;;0.30;;
76903;SDS011;65865;51.698;-0.292;2023-03-13T04:28:25;0.80;;;0.35;;
76903;SDS011;65865;51.698;-0.292;2023-03-13T04:30:51;1.55;;;0.20;;
76903;SDS011;65865;51.698;-0.292;2023-03-13T04:33:22;1.15;;;0.30;;
76903;SDS011;65865;51.698;-0.292;2023-03-13T04:35:48;1.40;;;0.20;;
76903;SDS011;65865;51.698;-0.292;2023-03-13T04:38:14;0.65;;;0.30;;
76903;SDS011;65865;51.698;-0.292;2023-03-13T04:40:40;1.38;;;0.30;;
76903;SDS011;65865;51.698;-0.292;2023-03-13T04:43:07;0.85;;;0.10;;
76903;SDS011;65865;51.698;-0.292;2023-03-13T04:45:34;1.42;;;0.38;;
76903;SDS011;65865;51.698;-0.292;2023-03-13T04:48:00;1.73;;;0.43;;
76903;SDS011;65865;51.698;-0.292;2023-03-13T04:50:28;1.55;;;0.30;;
76903;SDS011;65865;51.698;-0.292;2023-03-13T04:52:54;2.15;;;0.47;;
76903;SDS011;65865;51.698;-0.292;2023-03-13T04:55:20;1.63;;;0.20;;
76903;SDS011;65865;51.698;-0.292;2023-03-13T04:57:46;2.03;;;0.45;;
76903;SDS011;65865;51.698;-0.292;2023-03-13T05:00:12;1.33;;;0.57;;
76903;SDS011;65865;51.698;-0.292;2023-03-13T05:02:38;1.20;;;0.30;;
76903;SDS011;65865;51.698;-0.292;2023-03-13T05:05:04;1.05;;;0.20;;
76903;SDS011;65865;51.698;-0.292;2023-03-13T05:07:30;1.67;;;0.40;;
76903;SDS011;65865;51.698;-0.292;2023-03-13T05:09:56;1.05;;;0.20;;
76903;SDS011;65865;51.698;-0.292;2023-03-13T05:12:22;1.08;;;0.30;;
76903;SDS011;65865;51.698;-0.292;2023-03-13T05:14:48;1.60;;;0.30;;
76903;SDS011;65865;51.698;-0.292;2023-03-13T05:17:14;1.95;;;0.30;;
76903;SDS011;65865;51.698;-0.292;2023-03-13T05:19:41;2.78;;;0.40;;
76903;SDS011;65865;51.698;-0.292;2023-03-13T05:22:08;1.70;;;0.30;;
76903;SDS011;65865;51.698;-0.292;2023-03-13T05:24:34;7.07;;;0.40;;
76903;SDS011;65865;51.698;-0.292;2023-03-13T05:27:00;1.90;;;0.30;;
76903;SDS011;65865;51.698;-0.292;2023-03-13T05:29:26;2.55;;;0.50;;
76903;SDS011;65865;51.698;-0.292;2023-03-13T05:31:52;2.17;;;0.40;;
76903;SDS011;65865;51.698;-0.292;2023-03-13T05:34:18;1.33;;;0.20;;
76903;SDS011;65865;51.698;-0.292;2023-03-13T05:36:44;3.03;;;0.40;;
76903;SDS011;65865;51.698;-0.292;2023-03-13T05:39:10;3.88;;;0.73;;
76903;SDS011;65865;51.698;-0.292;2023-03-13T05:41:36;1.75;;;0.30;;
76903;SDS011;65865;51.698;-0.292;2023-03-13T05:44:02;2.38;;;0.50;;
76903;SDS011;65865;51.698;-0.292;2023-03-13T05:46:28;2.00;;;0.50;;
76903;SDS011;65865;51.698;-0.292;2023-03-13T05:48:55;2.08;;;0.60;;
76903;SDS011;65865;51.698;-0.292;2023-03-13T05:51:21;2.90;;;0.55;;
76903;SDS011;65865;51.698;-0.292;2023-03-13T05:53:47;1.50;;;0.30;;
76903;SDS011;65865;51.698;-0.292;2023-03-13T05:56:13;4.40;;;0.75;;
76903;SDS011;65865;51.698;-0.292;2023-03-13T05:58:39;3.30;;;0.50;;
76903;SDS011;65865;51.698;-0.292;2023-03-13T06:01:06;3.40;;;0.52;;
76903;SDS011;65865;51.698;-0.292;2023-03-13T06:03:32;2.88;;;0.52;;
76903;SDS011;65865;51.698;-0.292;2023-03-13T06:05:58;2.58;;;0.50;;
76903;SDS011;65865;51.698;-0.292;2023-03-13T06:08:24;3.05;;;0.50;;
76903;SDS011;65865;51.698;-0.292;2023-03-13T06:10:51;2.42;;;0.40;;
76903;SDS011;65865;51.698;-0.292;2023-03-13T06:13:17;3.28;;;0.77;;
76903;SDS011;65865;51.698;-0.292;2023-03-13T06:15:49;5.78;;;0.93;;
76903;SDS011;65865;51.698;-0.292;2023-03-13T06:18:15;4.78;;;0.75;;
76903;SDS011;65865;51.698;-0.292;2023-03-13T06:20:43;4.60;;;0.77;;
76903;SDS011;65865;51.698;-0.292;2023-03-13T06:25:35;3.97;;;0.50;;
76903;SDS011;65865;51.698;-0.292;2023-03-13T06:28:02;3.95;;;0.75;;
76903;SDS011;65865;51.698;-0.292;2023-03-13T06:30:28;3.50;;;0.63;;
76903;SDS011;65865;51.698;-0.292;2023-03-13T06:32:54;3.85;;;0.82;;
76903;SDS011;65865;51.698;-0.292;2023-03-13T06:35:20;2.78;;;0.40;;
76903;SDS011;65865;51.698;-0.292;2023-03-13T06:37:46;4.18;;;0.75;;
76903;SDS011;65865;51.698;-0.292;2023-03-13T06:40:12;4.65;;;0.82;;
76903;SDS011;65865;51.698;-0.292;2023-03-13T06:42:38;6.00;;;1.00;;
76903;SDS011;65865;51.698;-0.292;2023-03-13T06:45:04;6.25;;;1.00;;
76903;SDS011;65865;51.698;-0.292;2023-03-13T06:47:30;4.50;;;0.73;;
76903;SDS011;65865;51.698;-0.292;2023-03-13T06:49:57;7.32;;;1.13;;
76903;SDS011;65865;51.698;-0.292;2023-03-13T06:52:23;2.53;;;0.50;;
76903;SDS011;65865;51.698;-0.292;2023-03-13T06:54:49;3.38;;;0.82;;
76903;SDS011;65865;51.698;-0.292;2023-03-13T06:57:15;3.60;;;0.32;;
76903;SDS011;65865;51.698;-0.292;2023-03-13T06:59:41;3.15;;;0.43;;
76903;SDS011;65865;51.698;-0.292;2023-03-13T07:02:08;4.32;;;0.73;;
76903;SDS011;65865;51.698;-0.292;2023-03-13T07:04:35;4.25;;;0.70;;
76903;SDS011;65865;51.698;-0.292;2023-03-13T07:07:02;3.22;;;0.95;;
76903;SDS011;65865;51.698;-0.292;2023-03-13T07:09:28;3.63;;;0.80;;
76903;SDS011;65865;51.698;-0.292;2023-03-13T07:11:54;5.65;;;0.88;;
76903;SDS011;65865;51.698;-0.292;2023-03-13T07:14:22;4.75;;;0.75;;
76903;SDS011;65865;51.698;-0.292;2023-03-13T07:16:48;4.15;;;0.85;;
76903;SDS011;65865;51.698;-0.292;2023-03-13T07:19:14;4.68;;;0.82;;
76903;SDS011;65865;51.698;-0.292;2023-03-13T07:21:40;5.55;;;1.00;;
76903;SDS011;65865;51.698;-0.292;2023-03-13T07:24:06;4.30;;;0.90;;
76903;SDS011;65865;51.698;-0.292;2023-03-13T07:26:32;3.63;;;0.70;;
76903;SDS011;65865;51.698;-0.292;2023-03-13T07:28:58;2.88;;;0.70;;
76903;SDS011;65865;51.698;-0.292;2023-03-13T07:31:24;3.65;;;0.80;;
76903;SDS011;65865;51.698;-0.292;2023-03-13T07:33:52;3.63;;;0.65;;
76903;SDS011;65865;51.698;-0.292;2023-03-13T07:36:20;4.07;;;0.95;;
76903;SDS011;65865;51.698;-0.292;2023-03-13T07:38:47;4.22;;;0.98;;
76903;SDS011;65865;51.698;-0.292;2023-03-13T07:41:13;6.68;;;0.82;;
76903;SDS011;65865;51.698;-0.292;2023-03-13T07:43:39;5.25;;;0.80;;
76903;SDS011;65865;51.698;-0.292;2023-03-13T07:46:06;5.65;;;1.08;;
76903;SDS011;65865;51.698;-0.292;2023-03-13T07:48:33;3.05;;;0.63;;
76903;SDS011;65865;51.698;-0.292;2023-03-13T07:51:00;3.30;;;0.50;;
76903;SDS011;65865;51.698;-0.292;2023-03-13T07:53:26;3.38;;;0.73;;
76903;SDS011;65865;51.698;-0.292;2023-03-13T07:56:26;4.22;;;0.80;;
76903;SDS011;65865;51.698;-0.292;2023-03-13T07:58:45;4.38;;;0.93;;
76903;SDS011;65865;51.698;-0.292;2023-03-13T08:01:13;2.67;;;0.63;;
76903;SDS011;65865;51.698;-0.292;2023-03-13T08:03:39;5.40;;;1.00;;
76903;SDS011;65865;51.698;-0.292;2023-03-13T08:06:06;4.78;;;0.88;;
76903;SDS011;65865;51.698;-0.292;2023-03-13T08:08:33;7.03;;;1.10;;
76903;SDS011;65865;51.698;-0.292;2023-03-13T08:10:59;6.85;;;1.40;;
76903;SDS011;65865;51.698;-0.292;2023-03-13T08:13:26;4.70;;;0.77;;
76903;SDS011;65865;51.698;-0.292;2023-03-13T08:15:59;7.88;;;1.20;;
76903;SDS011;65865;51.698;-0.292;2023-03-13T08:18:25;7.15;;;1.00;;
76903;SDS011;65865;51.698;-0.292;2023-03-13T08:20:51;7.43;;;1.48;;
76903;SDS011;65865;51.698;-0.292;2023-03-13T08:23:17;6.13;;;1.45;;
76903;SDS011;65865;51.698;-0.292;2023-03-13T08:25:43;5.68;;;1.13;;
76903;SDS011;65865;51.698;-0.292;2023-03-13T08:28:10;8.63;;;1.30;;
76903;SDS011;65865;51.698;-0.292;2023-03-13T08:30:36;7.97;;;1.60;;
76903;SDS011;65865;51.698;-0.292;2023-03-13T08:33:02;9.25;;;1.25;;
76903;SDS011;65865;51.698;-0.292;2023-03-13T08:35:28;7.28;;;1.25;;
76903;SDS011;65865;51.698;-0.292;2023-03-13T08:37:55;7.85;;;1.42;;
76903;SDS011;65865;51.698;-0.292;2023-03-13T08:40:21;6.10;;;1.27;;
76903;SDS011;65865;51.698;-0.292;2023-03-13T08:42:46;6.47;;;1.38;;
76903;SDS011;65865;51.698;-0.292;2023-03-13T08:45:12;8.20;;;1.15;;
76903;SDS011;65865;51.698;-0.292;2023-03-13T08:47:39;5.15;;;1.10;;
76903;SDS011;65865;51.698;-0.292;2023-03-13T08:50:05;6.68;;;1.45;;
76903;SDS011;65865;51.698;-0.292;2023-03-13T08:52:31;8.00;;;1.90;;
76903;SDS011;65865;51.698;-0.292;2023-03-13T08:54:57;8.38;;;1.50;;
76903;SDS011;65865;51.698;-0.292;2023-03-13T08:57:23;8.48;;;1.40;;
76903;SDS011;65865;51.698;-0.292;2023-03-13T08:59:49;5.95;;;1.52;;
76903;SDS011;65865;51.698;-0.292;2023-03-13T09:02:15;7.10;;;1.63;;
76903;SDS011;65865;51.698;-0.292;2023-03-13T09:04:44;7.53;;;1.35;;
76903;SDS011;65865;51.698;-0.292;2023-03-13T09:07:11;9.20;;;1.95;;
76903;SDS011;65865;51.698;-0.292;2023-03-13T09:09:37;8.75;;;1.38;;
76903;SDS011;65865;51.698;-0.292;2023-03-13T09:12:03;8.77;;;1.60;;
76903;SDS011;65865;51.698;-0.292;2023-03-13T09:14:29;14.85;;;2.30;;
76903;SDS011;65865;51.698;-0.292;2023-03-13T09:16:55;15.35;;;1.90;;
76903;SDS011;65865;51.698;-0.292;2023-03-13T09:21:49;11.52;;;1.85;;
76903;SDS011;65865;51.698;-0.292;2023-03-13T09:24:15;13.27;;;1.90;;
76903;SDS011;65865;51.698;-0.292;2023-03-13T09:26:41;11.82;;;2.20;;
76903;SDS011;65865;51.698;-0.292;2023-03-13T09:29:09;11.93;;;2.40;;
76903;SDS011;65865;51.698;-0.292;2023-03-13T09:34:02;11.80;;;2.55;;
76903;SDS011;65865;51.698;-0.292;2023-03-13T09:36:28;12.27;;;2.78;;
76903;SDS011;65865;51.698;-0.292;2023-03-13T09:38:56;17.17;;;3.20;;
76903;SDS011;65865;51.698;-0.292;2023-03-13T09:41:23;15.55;;;2.75;;
76903;SDS011;65865;51.698;-0.292;2023-03-13T09:48:58;17.08;;;3.00;;
76903;SDS011;65865;51.698;-0.292;2023-03-13T09:51:32;16.35;;;3.17;;
76903;SDS011;65865;51.698;-0.292;2023-03-13T09:56:29;13.75;;;3.50;;
76903;SDS011;65865;51.698;-0.292;2023-03-13T09:59:18;14.63;;;2.80;;
76903;SDS011;65865;51.698;-0.292;2023-03-13T10:01:42;17.90;;;3.22;;
76903;SDS011;65865;51.698;-0.292;2023-03-13T10:04:22;14.57;;;2.80;;
76903;SDS011;65865;51.698;-0.292;2023-03-13T10:06:50;15.65;;;2.80;;
76903;SDS011;65865;51.698;-0.292;2023-03-13T10:09:18;19.02;;;3.72;;
76903;SDS011;65865;51.698;-0.292;2023-03-13T10:11:55;15.75;;;3.10;;
76903;SDS011;65865;51.698;-0.292;2023-03-13T10:17:19;17.92;;;2.83;;
76903;SDS011;65865;51.698;-0.292;2023-03-13T10:19:47;14.85;;;3.33;;
76903;SDS011;65865;51.698;-0.292;2023-03-13T10:22:21;21.42;;;3.38;;
76903;SDS011;65865;51.698;-0.292;2023-03-13T10:24:59;15.52;;;3.53;;
76903;SDS011;65865;51.698;-0.292;2023-03-13T10:27:27;17.25;;;3.85;;
76903;SDS011;65865;51.698;-0.292;2023-03-13T10:29:53;16.92;;;3.17;;
76903;SDS011;65865;51.698;-0.292;2023-03-13T10:32:19;17.58;;;3.30;;
76903;SDS011;65865;51.698;-0.292;2023-03-13T10:34:59;13.85;;;2.88;;
76903;SDS011;65865;51.698;-0.292;2023-03-13T10:37:30;15.23;;;3.15;;
76903;SDS011;65865;51.698;-0.292;2023-03-13T10:42:52;15.45;;;3.03;;
76903;SDS011;65865;51.698;-0.292;2023-03-13T10:45:19;22.67;;;3.85;;
76903;SDS011;65865;51.698;-0.292;2023-03-13T10:47:52;16.38;;;3.03;;
76903;SDS011;65865;51.698;-0.292;2023-03-13T10:50:23;14.82;;;3.35;;
76903;SDS011;65865;51.698;-0.292;2023-03-13T10:52:49;16.80;;;3.60;;
76903;SDS011;65865;51.698;-0.292;2023-03-13T10:55:20;13.27;;;2.97;;
76903;SDS011;65865;51.698;-0.292;2023-03-13T10:57:57;19.17;;;3.67;;
76903;SDS011;65865;51.698;-0.292;2023-03-13T11:00:29;17.90;;;3.00;;
76903;SDS011;65865;51.698;-0.292;2023-03-13T11:02:57;14.93;;;3.33;;
76903;SDS011;65865;51.698;-0.292;2023-03-13T11:07:55;13.23;;;3.00;;
76903;SDS011;65865;51.698;-0.292;2023-03-13T11:13:00;19.45;;;3.53;;
76903;SDS011;65865;51.698;-0.292;2023-03-13T11:17:58;18.67;;;4.20;;
76903;SDS011;65865;51.698;-0.292;2023-03-13T11:20:27;23.55;;;3.70;;
76903;SDS011;65865;51.698;-0.292;2023-03-13T11:28:07;18.90;;;3.25;;
76903;SDS011;65865;51.698;-0.292;2023-03-13T11:33:46;18.50;;;3.42;;
76903;SDS011;65865;51.698;-0.292;2023-03-13T11:36:21;16.83;;;3.75;;
76903;SDS011;65865;51.698;-0.292;2023-03-13T11:38:53;21.85;;;3.35;;
76903;SDS011;65865;51.698;-0.292;2023-03-13T11:51:55;18.05;;;3.63;;
76903;SDS011;65865;51.698;-0.292;2023-03-13T11:56:56;20.15;;;3.13;;
76903;SDS011;65865;51.698;-0.292;2023-03-13T12:01:53;18.48;;;3.45;;
76903;SDS011;65865;51.698;-0.292;2023-03-13T12:04:24;16.30;;;3.97;;
76903;SDS011;65865;51.698;-0.292;2023-03-13T12:11:53;15.80;;;3.00;;
76903;SDS011;65865;51.698;-0.292;2023-03-13T12:14:29;16.73;;;3.38;;
76903;SDS011;65865;51.698;-0.292;2023-03-13T12:17:00;21.98;;;3.75;;
76903;SDS011;65865;51.698;-0.292;2023-03-13T12:19:44;18.65;;;4.00;;
76903;SDS011;65865;51.698;-0.292;2023-03-13T12:22:13;20.35;;;4.03;;
76903;SDS011;65865;51.698;-0.292;2023-03-13T12:24:48;16.27;;;3.25;;
76903;SDS011;65865;51.698;-0.292;2023-03-13T12:29:52;18.35;;;3.45;;
76903;SDS011;65865;51.698;-0.292;2023-03-13T12:32:25;21.15;;;3.60;;
76903;SDS011;65865;51.698;-0.292;2023-03-13T12:34:54;18.50;;;3.58;;
76903;SDS011;65865;51.698;-0.292;2023-03-13T12:37:30;20.38;;;3.50;;
76903;SDS011;65865;51.698;-0.292;2023-03-13T12:45:22;18.35;;;4.07;;
76903;SDS011;65865;51.698;-0.292;2023-03-13T12:51:11;17.60;;;3.25;;
76903;SDS011;65865;51.698;-0.292;2023-03-13T12:59:06;13.20;;;3.03;;
76903;SDS011;65865;51.698;-0.292;2023-03-13T13:01:40;15.32;;;3.00;;
76903;SDS011;65865;51.698;-0.292;2023-03-13T13:04:11;16.65;;;3.22;;
76903;SDS011;65865;51.698;-0.292;2023-03-13T13:06:59;13.98;;;3.08;;
76903;SDS011;65865;51.698;-0.292;2023-03-13T13:17:15;16.35;;;3.15;;
76903;SDS011;65865;51.698;-0.292;2023-03-13T13:19:45;14.85;;;2.80;;
76903;SDS011;65865;51.698;-0.292;2023-03-13T13:25:00;13.10;;;3.35;;
76903;SDS011;65865;51.698;-0.292;2023-03-13T13:29:54;15.63;;;3.20;;
76903;SDS011;65865;51.698;-0.292;2023-03-13T13:37:40;14.30;;;3.10;;
76903;SDS011;65865;51.698;-0.292;2023-03-13T13:42:45;15.30;;;2.85;;
76903;SDS011;65865;51.698;-0.292;2023-03-13T13:47:45;14.25;;;2.70;;
76903;SDS011;65865;51.698;-0.292;2023-03-13T13:50:22;13.73;;;2.58;;
76903;SDS011;65865;51.698;-0.292;2023-03-13T13:52:49;13.63;;;2.70;;
76903;SDS011;65865;51.698;-0.292;2023-03-13T14:00:42;13.10;;;2.33;;
76903;SDS011;65865;51.698;-0.292;2023-03-13T14:05:49;14.95;;;2.72;;
76903;SDS011;65865;51.698;-0.292;2023-03-13T14:08:19;16.38;;;2.70;;
76903;SDS011;65865;51.698;-0.292;2023-03-13T14:10:47;12.50;;;2.33;;
76903;SDS011;65865;51.698;-0.292;2023-03-13T14:13:19;14.52;;;2.85;;
76903;SDS011;65865;51.698;-0.292;2023-03-13T14:15:46;13.38;;;3.10;;
76903;SDS011;65865;51.698;-0.292;2023-03-13T14:18:23;13.45;;;3.28;;
76903;SDS011;65865;51.698;-0.292;2023-03-13T14:23:28;10.00;;;2.25;;
76903;SDS011;65865;51.698;-0.292;2023-03-13T14:25:56;12.65;;;2.38;;
76903;SDS011;65865;51.698;-0.292;2023-03-13T14:28:24;14.57;;;3.13;;
76903;SDS011;65865;51.698;-0.292;2023-03-13T14:30:52;13.48;;;2.75;;
76903;SDS011;65865;51.698;-0.292;2023-03-13T14:33:18;11.07;;;2.42;;
76903;SDS011;65865;51.698;-0.292;2023-03-13T14:35:44;16.27;;;2.70;;
76903;SDS011;65865;51.698;-0.292;2023-03-13T14:40:42;14.57;;;3.03;;
76903;SDS011;65865;51.698;-0.292;2023-03-13T14:45:47;14.35;;;3.90;;
76903;SDS011;65865;51.698;-0.292;2023-03-13T14:48:18;17.48;;;5.22;;
76903;SDS011;65865;51.698;-0.292;2023-03-13T14:50:44;15.60;;;5.15;;
76903;SDS011;65865;51.698;-0.292;2023-03-13T14:53:20;16.92;;;4.70;;
76903;SDS011;65865;51.698;-0.292;2023-03-13T14:55:47;13.23;;;3.42;;
76903;SDS011;65865;51.698;-0.292;2023-03-13T15:00:46;15.27;;;3.70;;
76903;SDS011;65865;51.698;-0.292;2023-03-13T15:05:40;11.82;;;3.08;;
76903;SDS011;65865;51.698;-0.292;2023-03-13T15:08:14;13.40;;;2.88;;
76903;SDS011;65865;51.698;-0.292;2023-03-13T15:10:40;13.93;;;2.70;;
76903;SDS011;65865;51.698;-0.292;2023-03-13T15:15:48;11.82;;;2.25;;
76903;SDS011;65865;51.698;-0.292;2023-03-13T15:18:19;13.32;;;2.80;;
76903;SDS011;65865;51.698;-0.292;2023-03-13T15:20:49;12.30;;;2.53;;
76903;SDS011;65865;51.698;-0.292;2023-03-13T15:23:17;13.40;;;2.50;;
76903;SDS011;65865;51.698;-0.292;2023-03-13T15:25:43;15.52;;;3.08;;
76903;SDS011;65865;51.698;-0.292;2023-03-13T15:28:14;15.32;;;3.55;;
76903;SDS011;65865;51.698;-0.292;2023-03-13T15:30:40;12.43;;;2.88;;
76903;SDS011;65865;51.698;-0.292;2023-03-13T15:33:10;14.52;;;2.70;;
76903;SDS011;65865;51.698;-0.292;2023-03-13T15:35:37;15.68;;;2.58;;
76903;SDS011;65865;51.698;-0.292;2023-03-13T15:38:03;11.13;;;2.75;;
76903;SDS011;65865;51.698;-0.292;2023-03-13T15:42:57;12.40;;;2.65;;
76903;SDS011;65865;51.698;-0.292;2023-03-13T15:45:23;14.55;;;3.50;;
76903;SDS011;65865;51.698;-0.292;2023-03-13T15:47:49;20.20;;;6.18;;
76903;SDS011;65865;51.698;-0.292;2023-03-13T15:50:17;27.55;;;7.82;;
76903;SDS011;65865;51.698;-0.292;2023-03-13T15:52:43;23.73;;;8.00;;
76903;SDS011;65865;51.698;-0.292;2023-03-13T15:55:10;22.95;;;7.63;;
76903;SDS011;65865;51.698;-0.292;2023-03-13T15:57:36;25.08;;;7.57;;
76903;SDS011;65865;51.698;-0.292;2023-03-13T16:00:11;26.40;;;8.20;;
76903;SDS011;65865;51.698;-0.292;2023-03-13T16:02:38;24.98;;;7.22;;
76903;SDS011;65865;51.698;-0.292;2023-03-13T16:05:04;23.40;;;6.72;;
76903;SDS011;65865;51.698;-0.292;2023-03-13T16:07:30;25.50;;;6.22;;
76903;SDS011;65865;51.698;-0.292;2023-03-13T16:09:56;21.30;;;6.55;;
76903;SDS011;65865;51.698;-0.292;2023-03-13T16:12:22;25.27;;;6.38;;
76903;SDS011;65865;51.698;-0.292;2023-03-13T16:14:48;22.77;;;6.80;;
76903;SDS011;65865;51.698;-0.292;2023-03-13T16:17:15;19.88;;;5.07;;
76903;SDS011;65865;51.698;-0.292;2023-03-13T16:19:42;19.02;;;5.38;;
76903;SDS011;65865;51.698;-0.292;2023-03-13T16:22:08;19.63;;;4.88;;
76903;SDS011;65865;51.698;-0.292;2023-03-13T16:24:34;15.90;;;4.43;;
76903;SDS011;65865;51.698;-0.292;2023-03-13T16:27:00;17.92;;;4.80;;
76903;SDS011;65865;51.698;-0.292;2023-03-13T16:29:26;15.38;;;3.92;;
76903;SDS011;65865;51.698;-0.292;2023-03-13T16:31:52;18.10;;;4.20;;
76903;SDS011;65865;51.698;-0.292;2023-03-13T16:34:18;20.65;;;4.63;;
76903;SDS011;65865;51.698;-0.292;2023-03-13T16:36:44;19.83;;;4.88;;
76903;SDS011;65865;51.698;-0.292;2023-03-13T16:39:11;13.80;;;3.63;;
76903;SDS011;65865;51.698;-0.292;2023-03-13T16:44:04;13.85;;;3.85;;
76903;SDS011;65865;51.698;-0.292;2023-03-13T16:48:59;15.43;;;4.15;;
76903;SDS011;65865;51.698;-0.292;2023-03-13T16:51:26;14.75;;;3.63;;